Time;durP1;ratioP1;P1;durP2;ratioP2;P2;SDS_P1;SDS_P2;PMS_P1;PMS_P2;Temp;Humidity;BMP_temperature;BMP_pressure;BME280_temperature;BME280_humidity;BME280_pressure;Samples;Min_cycle;Max_cycle;Signal;HPM_P1;HPM_P2
2021/11/08 00:02:27;;;;;;;;;;;;;;;-144.99;100.00;52525.56;5006563;28;20009;-67
2021/11/08 00:04:53;;;;;;;;;;;;;;;-144.99;100.00;52541.84;5003481;28;20085;-67
2021/11/08 00:07:20;;;;;;;;;;;;;;;-144.99;100.00;52547.97;4986598;28;19993;-67
2021/11/08 00:09:47;;;;;;;;;;;;;;;-144.99;100.00;52509.25;4982680;28;20168;-66
2021/11/08 00:12:13;;;;;;;;;;;;;;;-144.99;100.00;52529.63;4987016;28;20017;-66
2021/11/08 00:14:41;;;;;;;;;;;;;;;-144.99;100.00;52525.56;4994792;28;19984;-65
2021/11/08 00:17:16;;;;;;;;;;;;;;;-144.99;100.00;52509.25;4995884;28;20441;-66
2021/11/08 00:19:53;;;;;;;;;;;;;;;-144.99;100.00;52562.25;4986935;28;20434;-66
2021/11/08 00:22:20;;;;;;;;;;;;;;;-144.99;100.00;52497.00;4991364;28;20450;-65
2021/11/08 00:24:48;;;;;;;;;;;;;;;-144.99;100.00;52545.94;4986890;28;20462;-66
2021/11/08 00:27:15;;;;;;;;;;;;;;;-144.99;100.00;52529.63;4987756;28;20025;-71
2021/11/08 00:29:42;;;;;;;;;;;;;;;-144.99;100.00;52558.16;4647114;28;10000486;-66
2021/11/08 00:32:09;;;;;;;;;;;;;;;-144.99;100.00;52521.47;4986733;28;20141;-66
2021/11/08 00:34:35;;;;;;;;;;;;;;;-144.99;100.00;52537.78;4987028;28;20182;-66
2021/11/08 00:37:03;;;;;;;;;;;;;;;-144.99;100.00;52550.00;4998534;28;20069;-65
2021/11/08 00:39:30;;;;;;;;;;;;;;;-144.99;100.00;52558.16;4976879;28;19989;-66
2021/11/08 00:41:57;;;;;;;;;;;;;;;-144.99;100.00;52509.25;4987210;28;19993;-65
2021/11/08 00:44:23;;;;;;;;;;;;;;;-144.99;100.00;52529.63;4999797;28;19984;-63
2021/11/08 00:46:50;;;;;;;;;;;;;;;-144.99;100.00;52550.00;5000293;28;19986;-63
2021/11/08 00:49:17;;;;;;;;;;;;;;;-144.99;100.00;52521.47;4995801;28;20308;-62
2021/11/08 00:51:45;;;;;;;;;;;;;;;-144.99;100.00;52545.94;4999021;28;19994;-61
2021/11/08 00:54:14;;;;;;;;;;;;;;;-144.99;100.00;52554.09;4989536;28;20479;-63
2021/11/08 00:56:43;;;;;;;;;;;;;;;-144.99;100.00;52558.16;4989797;28;20077;-62
2021/11/08 00:59:09;;;;;;;;;;;;;;;-144.99;100.00;52550.00;4998847;28;19972;-61
2021/11/08 01:01:36;;;;;;;;;;;;;;;-144.99;100.00;52545.94;4996357;28;20068;-62
2021/11/08 01:04:02;;;;;;;;;;;;;;;-144.99;100.00;52558.16;5009057;28;20096;-62
2021/11/08 01:06:29;;;;;;;;;;;;;;;-144.99;100.00;52545.94;5009378;28;19982;-62
2021/11/08 01:08:55;;;;;;;;;;;;;;;-144.99;100.00;52554.09;5000047;28;19974;-62
2021/11/08 01:11:23;;;;;;;;;;;;;;;-144.99;100.00;52545.94;5006181;28;19998;-64
2021/11/08 01:13:49;;;;;;;;;;;;;;;-144.99;100.00;52513.31;5005154;28;20140;-63
2021/11/08 01:16:16;;;;;;;;;;;;;;;-144.99;100.00;52545.94;4998944;28;19982;-63
2021/11/08 01:18:44;;;;;;;;;;;;;;;-144.99;100.00;52545.94;4989292;28;19974;-64
2021/11/08 01:21:11;;;;;;;;;;;;;;;-144.99;100.00;52545.94;5005966;28;19984;-63
2021/11/08 01:23:37;;;;;;;;;;;;;;;-144.99;100.00;52541.84;4992908;28;20443;-63
2021/11/08 01:26:07;;;;;;;;;;;;;;;-144.99;100.00;52550.00;4992868;28;19982;-65
2021/11/08 01:28:36;;;;;;;;;;;;;;;-144.99;100.00;52529.63;4992881;28;19952;-66
2021/11/08 01:31:03;;;;;;;;;;;;;;;-144.99;100.00;52550.00;4992680;28;19994;-67
2021/11/08 01:33:30;;;;;;;;;;;;;;;-144.99;100.00;52501.09;4993383;28;20049;-69
2021/11/08 01:36:08;;;;;;;;;;;;;;;-144.99;100.00;52525.56;5013588;28;20545;-67
2021/11/08 01:38:39;;;;;;;;;;;;;;;-144.99;100.00;52582.63;5000625;28;20024;-66
2021/11/08 01:41:05;;;;;;;;;;;;;;;-144.99;100.00;52554.09;4986247;28;19978;-67
2021/11/08 01:43:32;;;;;;;;;;;;;;;-144.99;100.00;52586.69;4987859;28;20108;-67
2021/11/08 01:46:01;;;;;;;;;;;;;;;-144.99;100.00;52554.09;4997955;28;20056;-67
2021/11/08 01:48:28;;;;;;;;;;;;;;;-144.99;100.00;52541.84;4986887;28;20462;-66
2021/11/08 01:50:54;;;;;;;;;;;;;;;-144.99;100.00;52503.13;5002832;28;20069;-69
2021/11/08 01:53:21;;;;;;;;;;;;;;;-144.99;100.00;52505.16;4996137;28;20021;-65
2021/11/08 01:55:48;;;;;;;;;;;;;;;-144.99;100.00;52537.78;5002056;28;20123;-66
2021/11/08 01:58:15;;;;;;;;;;;;;;;-144.99;100.00;52570.38;5004023;28;19978;-65
2021/11/08 02:00:41;;;;;;;;;;;;;;;-144.99;100.00;52550.00;5012500;28;20247;-65
2021/11/08 02:03:11;;;;;;;;;;;;;;;-144.99;100.00;52550.00;5012135;28;19998;-66
2021/11/08 02:05:37;;;;;;;;;;;;;;;-144.99;100.00;52550.00;5001668;28;19993;-65
2021/11/08 02:08:04;;;;;;;;;;;;;;;-144.99;100.00;52578.53;4989877;28;20065;-62
2021/11/08 02:10:30;;;;;;;;;;;;;;;-144.99;100.00;52509.25;4984079;28;19974;-63
2021/11/08 02:12:57;;;;;;;;;;;;;;;-144.99;100.00;52521.47;4995580;28;19980;-63
2021/11/08 02:15:23;;;;;;;;;;;;;;;-144.99;100.00;52527.59;5007183;28;20024;-62
2021/11/08 02:17:49;;;;;;;;;;;;;;;-144.99;100.00;52531.66;4996605;28;20366;-63
2021/11/08 02:20:19;;;;;;;;;;;;;;;-144.99;100.00;52529.63;4997055;28;19989;-63
2021/11/08 02:22:46;;;;;;;;;;;;;;;-144.99;100.00;52529.63;4995864;28;20534;-64
2021/11/08 02:25:14;;;;;;;;;;;;;;;-144.99;100.00;52519.44;4994070;28;20339;-63
2021/11/08 02:27:43;;;;;;;;;;;;;;;-144.99;100.00;52537.78;4992592;28;20014;-63
2021/11/08 02:30:10;;;;;;;;;;;;;;;-144.99;100.00;52566.31;4981858;28;19991;-63
2021/11/08 02:32:37;;;;;;;;;;;;;;;-144.99;100.00;52517.41;4981108;28;20017;-63
2021/11/08 02:35:05;;;;;;;;;;;;;;;-144.99;100.00;52525.56;4996113;28;20013;-62
2021/11/08 02:37:33;;;;;;;;;;;;;;;-144.99;100.00;52529.63;4993031;28;20443;-63
2021/11/08 02:40:00;;;;;;;;;;;;;;;-144.99;100.00;52570.38;4994497;28;20173;-63
2021/11/08 02:42:27;;;;;;;;;;;;;;;-144.99;100.00;52521.47;5012619;28;20060;-63
2021/11/08 02:44:54;;;;;;;;;;;;;;;-144.99;100.00;52574.47;4994825;28;19978;-62
2021/11/08 02:47:21;;;;;;;;;;;;;;;-144.99;100.00;52519.44;4998009;28;20025;-63
2021/11/08 02:49:49;;;;;;;;;;;;;;;-144.99;100.00;52554.09;4993168;28;19982;-62
2021/11/08 02:52:19;;;;;;;;;;;;;;;-144.99;100.00;52527.59;4996805;28;20052;-63
2021/11/08 02:54:49;;;;;;;;;;;;;;;-144.99;100.00;52562.25;4992429;28;19982;-62
2021/11/08 02:57:17;;;;;;;;;;;;;;;-144.99;100.00;52554.09;4992762;28;19982;-63
2021/11/08 02:59:43;;;;;;;;;;;;;;;-144.99;100.00;52525.56;4993116;28;20014;-63
2021/11/08 03:02:10;;;;;;;;;;;;;;;-144.99;100.00;52566.31;5011705;28;20521;-62
2021/11/08 03:04:39;;;;;;;;;;;;;;;-144.99;100.00;52513.31;5011993;28;19986;-62
2021/11/08 03:07:06;;;;;;;;;;;;;;;-144.99;100.00;52521.47;5011629;28;20004;-63
2021/11/08 03:09:34;;;;;;;;;;;;;;;-144.99;100.00;52533.69;5012207;28;19986;-62
2021/11/08 03:12:08;;;;;;;;;;;;;;;-144.99;100.00;52533.69;5000191;28;19967;-64
2021/11/08 03:14:39;;;;;;;;;;;;;;;-144.99;100.00;52527.59;5004375;28;19978;-64
2021/11/08 03:17:06;;;;;;;;;;;;;;;-144.99;100.00;52513.31;4999955;28;20410;-64
2021/11/08 03:19:34;;;;;;;;;;;;;;;-144.99;100.00;52570.38;4991488;28;20001;-64
2021/11/08 03:22:04;;;;;;;;;;;;;;;-144.99;100.00;52527.59;5002180;28;20396;-65
2021/11/08 03:24:38;;;;;;;;;;;;;;;-144.99;100.00;52550.00;5010725;28;20265;-65
2021/11/08 03:27:09;;;;;;;;;;;;;;;-144.99;100.00;52572.44;5010074;28;20071;-63
2021/11/08 03:29:35;;;;;;;;;;;;;;;-144.99;100.00;52541.84;5010708;28;19997;-63
2021/11/08 03:32:02;;;;;;;;;;;;;;;-144.99;100.00;52545.94;4998583;28;19994;-64
2021/11/08 03:34:29;;;;;;;;;;;;;;;-144.99;100.00;52533.69;5010824;28;19993;-64
2021/11/08 03:36:56;;;;;;;;;;;;;;;-144.99;100.00;52570.38;4996873;28;19978;-64
2021/11/08 03:39:23;;;;;;;;;;;;;;;-144.99;100.00;52529.63;5010063;28;19982;-64
2021/11/08 03:41:50;;;;;;;;;;;;;;;-144.99;100.00;52564.28;5003140;28;20040;-60
2021/11/08 03:44:18;;;;;;;;;;;;;;;-144.99;100.00;52570.38;5004219;28;19992;-60
2021/11/08 03:46:44;;;;;;;;;;;;;;;-144.99;100.00;52537.78;4999468;28;19951;-60
2021/11/08 03:49:11;;;;;;;;;;;;;;;-144.99;100.00;52554.09;4995748;28;20012;-60
2021/11/08 03:51:37;;;;;;;;;;;;;;;-144.99;100.00;52570.38;4996089;28;20017;-60
2021/11/08 03:54:06;;;;;;;;;;;;;;;-144.99;100.00;52541.84;4986441;28;20001;-59
2021/11/08 03:56:33;;;;;;;;;;;;;;;-144.99;100.00;52533.69;5010056;28;20028;-61
2021/11/08 03:59:00;;;;;;;;;;;;;;;-144.99;100.00;52574.47;5010212;28;20344;-61
2021/11/08 04:01:30;;;;;;;;;;;;;;;-144.99;100.00;52550.00;5008022;28;20407;-61
2021/11/08 04:03:56;;;;;;;;;;;;;;;-144.99;100.00;52541.84;4998619;28;20421;-61
2021/11/08 04:06:22;;;;;;;;;;;;;;;-144.99;100.00;52533.69;5009425;28;19982;-61
2021/11/08 04:08:49;;;;;;;;;;;;;;;-144.99;100.00;52586.69;5009928;28;19988;-60
2021/11/08 04:11:15;;;;;;;;;;;;;;;-144.99;100.00;52550.00;5009727;28;20058;-61
2021/11/08 04:13:42;;;;;;;;;;;;;;;-144.99;100.00;52556.13;4999310;28;19994;-63
2021/11/08 04:16:12;;;;;;;;;;;;;;;-144.99;100.00;52566.31;4999181;28;20000;-63
2021/11/08 04:18:46;;;;;;;;;;;;;;;-144.99;100.00;52554.09;4989908;28;20478;-62
2021/11/08 04:21:12;;;;;;;;;;;;;;;-144.99;100.00;52558.16;4993682;28;20033;-62
2021/11/08 04:23:39;;;;;;;;;;;;;;;-144.99;100.00;52541.84;4979042;28;20468;-61
2021/11/08 04:26:06;;;;;;;;;;;;;;;-144.99;100.00;52564.28;4988474;28;20319;-60
2021/11/08 04:28:34;;;;;;;;;;;;;;;-144.99;100.00;52566.31;4990114;28;19982;-59
2021/11/08 04:31:01;;;;;;;;;;;;;;;-144.99;100.00;52521.47;5006580;22;19994;-68
2021/11/08 04:33:33;;;;;;;;;;;;;;;-144.99;100.00;52521.47;4970224;28;19998;-68
2021/11/08 04:36:22;;;;;;;;;;;;;;;-144.99;100.00;52562.25;4974787;28;19978;-70
2021/11/08 04:38:56;;;;;;;;;;;;;;;-144.99;100.00;52562.25;4975028;28;20033;-68
2021/11/08 04:41:31;;;;;;;;;;;;;;;-144.99;100.00;52550.00;4972472;28;20434;-68
2021/11/08 04:44:05;;;;;;;;;;;;;;;-144.99;100.00;52541.84;4983779;28;20044;-68
2021/11/08 04:46:53;;;;;;;;;;;;;;;-144.99;100.00;52537.78;4999721;28;19978;-67
2021/11/08 04:49:26;;;;;;;;;;;;;;;-144.99;100.00;52574.47;4993278;28;19978;-69
2021/11/08 04:52:01;;;;;;;;;;;;;;;-144.99;100.00;52547.97;4992837;28;20003;-69
2021/11/08 04:54:35;;;;;;;;;;;;;;;-144.99;100.00;52558.16;4973335;28;20493;-69
2021/11/08 04:57:24;;;;;;;;;;;;;;;-144.99;100.00;52568.34;4975163;28;20020;-69
2021/11/08 05:24:47;;;;;;;;;;;;;;;-144.99;100.00;52560.19;4973785;28;20411;-67
2021/11/08 05:30:05;;;;;;;;;;;;;;;-144.99;100.00;52570.38;4975117;28;20384;-66
2021/11/08 05:32:33;;;;;;;;;;;;;;;-144.99;100.00;52550.00;4974179;28;20003;-66
2021/11/08 05:35:00;;;;;;;;;;;;;;;-144.99;100.00;52566.31;4978140;28;19981;-66
2021/11/08 05:37:27;;;;;;;;;;;;;;;-144.99;100.00;52550.00;4976155;28;20090;-66
2021/11/08 05:39:57;;;;;;;;;;;;;;;-144.99;100.00;52566.31;4974841;28;19982;-66
2021/11/08 05:42:24;;;;;;;;;;;;;;;-144.99;100.00;52550.00;4968235;28;19995;-66
2021/11/08 05:44:51;;;;;;;;;;;;;;;-144.99;100.00;52566.31;4989297;28;20488;-66
2021/11/08 05:47:18;;;;;;;;;;;;;;;-144.99;100.00;52558.16;4975599;28;19983;-66
2021/11/08 05:49:46;;;;;;;;;;;;;;;-144.99;100.00;52554.09;4982776;28;19978;-68
2021/11/08 05:52:14;;;;;;;;;;;;;;;-144.99;100.00;52566.31;4975814;28;20097;-69
2021/11/08 05:54:41;;;;;;;;;;;;;;;-144.99;100.00;52574.47;4974066;28;20044;-69
2021/11/08 05:57:33;;;;;;;;;;;;;;;-144.99;100.00;52578.53;4974170;28;20030;-69
2021/11/08 06:49:25;;;;;;;;;;;;;;;-144.99;100.00;52521.47;4974702;28;20125;-70
2021/11/08 06:51:53;;;;;;;;;;;;;;;-144.99;100.00;52545.94;4968197;28;20033;-70
2021/11/08 06:54:20;;;;;;;;;;;;;;;-144.99;100.00;52582.63;4971413;28;20018;-70
2021/11/08 06:56:50;;;;;;;;;;;;;;;-144.99;100.00;52566.31;4969772;28;19986;-70
2021/11/08 06:59:19;;;;;;;;;;;;;;;-144.99;100.00;52554.09;4972116;28;19994;-71
2021/11/08 07:01:48;;;;;;;;;;;;;;;-144.99;100.00;52574.47;4963540;28;19987;-70
2021/11/08 07:04:14;;;;;;;;;;;;;;;-144.99;100.00;52499.06;4972858;28;20105;-71
2021/11/08 07:06:41;;;;;;;;;;;;;;;-144.99;100.00;52568.34;4971391;28;20455;-70
2021/11/08 07:09:07;;;;;;;;;;;;;;;-144.99;100.00;52545.94;4970993;28;20277;-70
2021/11/08 07:11:34;;;;;;;;;;;;;;;-144.99;100.00;52501.09;4962724;28;20034;-71
2021/11/08 07:14:00;;;;;;;;;;;;;;;-144.99;100.00;52521.47;4992787;28;19980;-73
2021/11/08 07:16:27;;;;;;;;;;;;;;;-144.99;100.00;52550.00;4996399;28;19978;-71
2021/11/08 07:18:55;;;;;;;;;;;;;;;-144.99;100.00;52564.28;4987075;28;19989;-71
2021/11/08 07:21:21;;;;;;;;;;;;;;;-144.99;100.00;52558.16;4973699;28;19979;-70
2021/11/08 07:23:47;;;;;;;;;;;;;;;-144.99;100.00;52578.53;4970416;28;19983;-71
2021/11/08 07:26:14;;;;;;;;;;;;;;;-144.99;100.00;52533.69;4974448;28;19990;-70
2021/11/08 07:28:40;;;;;;;;;;;;;;;-144.99;100.00;52574.47;4970200;28;20001;-70
2021/11/08 07:31:08;;;;;;;;;;;;;;;-144.99;100.00;52570.38;4969954;28;19986;-70
2021/11/08 07:33:35;;;;;;;;;;;;;;;-144.99;100.00;52537.78;4968308;28;19999;-70
2021/11/08 07:36:02;;;;;;;;;;;;;;;-144.99;100.00;52529.63;4981238;28;19978;-71
2021/11/08 07:38:31;;;;;;;;;;;;;;;-144.99;100.00;52529.63;4980098;28;19982;-71
2021/11/08 07:40:58;;;;;;;;;;;;;;;-144.99;100.00;52501.09;4978715;28;20013;-71
2021/11/08 07:43:24;;;;;;;;;;;;;;;-144.99;100.00;52525.56;4977973;28;20004;-71
2021/11/08 07:45:50;;;;;;;;;;;;;;;-144.99;100.00;52537.78;4980603;28;19993;-70
2021/11/08 07:48:17;;;;;;;;;;;;;;;-144.99;100.00;52513.31;4982465;28;20462;-71
2021/11/08 07:50:43;;;;;;;;;;;;;;;-144.99;100.00;52554.09;4988137;28;20179;-71
2021/11/08 07:53:11;;;;;;;;;;;;;;;-144.99;100.00;52533.69;4974160;28;20034;-70
2021/11/08 07:55:38;;;;;;;;;;;;;;;-144.99;100.00;52501.09;4981512;28;19982;-72
2021/11/08 07:58:05;;;;;;;;;;;;;;;-144.99;100.00;52521.47;4979067;28;20553;-70
2021/11/08 08:00:31;;;;;;;;;;;;;;;-144.99;100.00;52537.78;4979602;28;19982;-71
2021/11/08 08:02:58;;;;;;;;;;;;;;;-144.99;100.00;52517.41;4978110;28;19990;-71
2021/11/08 08:05:24;;;;;;;;;;;;;;;-144.99;100.00;52541.84;4980810;28;19982;-71
2021/11/08 08:07:51;;;;;;;;;;;;;;;-144.99;100.00;52509.25;4978858;28;20313;-71
2021/11/08 08:10:18;;;;;;;;;;;;;;;-144.99;100.00;52541.84;4978513;28;19993;-71
2021/11/08 08:12:45;;;;;;;;;;;;;;;-144.99;99.40;52517.41;4969551;28;20498;-70
2021/11/08 08:15:13;;;;;;;;;;;;;;;-144.99;98.96;52517.41;4977000;28;19993;-71
2021/11/08 08:17:39;;;;;;;;;;;;;;;-144.99;98.64;52533.69;4979397;28;19983;-71
2021/11/08 08:20:13;;;;;;;;;;;;;;;-144.99;97.84;52525.56;4969979;28;19997;-71
2021/11/08 08:22:39;;;;;;;;;;;;;;;-144.99;97.17;52509.25;4966385;28;19998;-71
2021/11/08 08:25:05;;;;;;;;;;;;;;;-144.99;97.31;52529.63;4968141;28;20597;-71
2021/11/08 08:27:33;;;;;;;;;;;;;;;-144.99;96.52;52505.16;4966896;28;20474;-72
2021/11/08 08:30:00;;;;;;;;;;;;;;;-144.99;96.72;52515.34;4967579;28;19983;-71
2021/11/08 08:32:26;;;;;;;;;;;;;;;-144.99;95.93;52529.63;4968607;28;20254;-71
2021/11/08 08:34:52;;;;;;;;;;;;;;;-144.99;95.09;52541.84;4963795;28;19990;-72
2021/11/08 08:37:20;;;;;;;;;;;;;;;-144.99;93.96;52492.94;4970112;28;19987;-71
2021/11/08 08:39:46;;;;;;;;;;;;;;;-144.99;93.05;52488.84;4975760;28;20206;-71
2021/11/08 08:42:13;;;;;;;;;;;;;;;-144.99;92.48;52525.56;4974870;28;20018;-72
2021/11/08 08:44:40;;;;;;;;;;;;;;;-144.99;90.88;52472.56;4975928;28;19978;-72
2021/11/08 08:47:07;;;;;;;;;;;;;;;-144.99;89.86;52497.00;4979535;28;19975;-72
2021/11/08 08:49:33;;;;;;;;;;;;;;;-144.99;89.48;52521.47;4975428;28;20203;-71
2021/11/08 08:52:00;;;;;;;;;;;;;;;-144.99;89.96;52462.34;4975096;28;19989;-71
2021/11/08 08:54:27;;;;;;;;;;;;;;;-144.99;89.26;52566.31;4967859;28;20193;-71
2021/11/08 08:56:53;;;;;;;;;;;;;;;-144.99;88.14;52476.63;4955789;28;20093;-71
2021/11/08 08:59:20;;;;;;;;;;;;;;;-144.99;84.90;52484.78;4968330;28;20018;-71
2021/11/08 09:01:48;;;;;;;;;;;;;;;-144.99;82.27;52427.72;4967970;28;20073;-72
2021/11/08 09:04:15;;;;;;;;;;;;;;;-144.99;80.81;52476.63;4969162;28;20007;-70
2021/11/08 09:06:41;;;;;;;;;;;;;;;-144.99;80.41;52456.25;4976089;28;19982;-71
2021/11/08 09:09:07;;;;;;;;;;;;;;;-144.99;80.11;52446.06;4974323;28;19982;-71
2021/11/08 09:11:34;;;;;;;;;;;;;;;-144.99;77.95;52480.72;4974502;28;20084;-71
2021/11/08 09:14:01;;;;;;;;;;;;;;;-144.99;77.49;52505.16;4974546;28;19994;-70
2021/11/08 09:16:28;;;;;;;;;;;;;;;-144.99;79.72;52519.44;4974799;28;19986;-71
2021/11/08 09:18:55;;;;;;;;;;;;;;;-144.99;81.49;52505.16;4979958;28;20379;-70
2021/11/08 09:21:23;;;;;;;;;;;;;;;-144.99;83.51;52492.94;4982925;28;20049;-71
2021/11/08 09:23:49;;;;;;;;;;;;;;;-144.99;85.93;52560.19;4980495;28;20003;-70
2021/11/08 09:26:16;;;;;;;;;;;;;;;-144.99;87.73;52533.69;4979246;28;19986;-70
2021/11/08 09:28:43;;;;;;;;;;;;;;;-144.99;90.36;52537.78;4976887;28;20536;-71
2021/11/08 09:31:09;;;;;;;;;;;;;;;-144.99;93.72;52537.78;4980629;28;19997;-71
2021/11/08 09:33:36;;;;;;;;;;;;;;;-144.99;94.55;52525.56;4981903;28;20010;-71
2021/11/08 09:36:06;;;;;;;;;;;;;;;-144.99;95.50;52517.41;4987930;28;20494;-70
2021/11/08 09:38:33;;;;;;;;;;;;;;;-144.99;96.35;52537.78;4970270;28;20018;-71
2021/11/08 09:41:00;;;;;;;;;;;;;;;-144.99;99.19;52545.94;4986441;28;19982;-71
2021/11/08 09:43:28;;;;;;;;;;;;;;;-144.99;99.45;52529.63;4992453;28;20161;-71
2021/11/08 09:45:55;;;;;;;;;;;;;;;-144.99;100.00;52505.16;4986163;28;19952;-71
2021/11/08 09:48:22;;;;;;;;;;;;;;;-144.99;100.00;52574.47;4974748;28;19991;-71
2021/11/08 09:50:49;;;;;;;;;;;;;;;-144.99;100.00;52550.00;4970482;28;20061;-71
2021/11/08 09:53:17;;;;;;;;;;;;;;;-144.99;100.00;52521.47;4980090;28;20017;-71
2021/11/08 09:55:45;;;;;;;;;;;;;;;-144.99;100.00;52521.47;4989152;28;20054;-70
2021/11/08 09:58:12;;;;;;;;;;;;;;;-144.99;100.00;52543.91;4986503;28;19979;-71
2021/11/08 10:00:52;;;;;;;;;;;;;;;-144.99;100.00;52570.38;4979596;28;19989;-71
2021/11/08 10:03:21;;;;;;;;;;;;;;;-144.99;100.00;52578.53;4988284;28;19998;-71
2021/11/08 10:05:48;;;;;;;;;;;;;;;-144.99;100.00;52554.09;4978039;28;19990;-71
2021/11/08 10:08:16;;;;;;;;;;;;;;;-144.99;100.00;52582.63;4971048;28;19997;-71
2021/11/08 10:10:43;;;;;;;;;;;;;;;-144.99;100.00;52515.34;4971619;28;20443;-71
2021/11/08 10:13:12;;;;;;;;;;;;;;;-144.99;100.00;52550.00;4972945;28;20073;-71
2021/11/08 10:15:39;;;;;;;;;;;;;;;-144.99;100.00;52505.16;4985170;28;20435;-71
2021/11/08 10:18:06;;;;;;;;;;;;;;;-144.99;100.00;52509.25;4974926;28;19982;-71
2021/11/08 10:20:34;;;;;;;;;;;;;;;-144.99;100.00;52554.09;4973460;28;19989;-71
2021/11/08 10:23:01;;;;;;;;;;;;;;;-144.99;100.00;52574.47;4969854;28;19998;-71
2021/11/08 10:25:28;;;;;;;;;;;;;;;-144.99;100.00;52541.84;4971271;28;19989;-71
2021/11/08 10:27:57;;;;;;;;;;;;;;;-144.99;100.00;52531.66;4970879;28;19994;-71
2021/11/08 10:30:25;;;;;;;;;;;;;;;-144.99;100.00;52560.19;4962117;28;19986;-71
2021/11/08 10:33:12;;;;;;;;;;;;;;;-144.99;100.00;52554.09;5026681;23;20001;-71
2021/11/08 10:35:40;;;;;;;;;;;;;;;-144.99;100.00;52562.25;5013372;28;19978;-70
2021/11/08 10:38:08;;;;;;;;;;;;;;;-144.99;100.00;52566.31;5021881;28;19995;-70
2021/11/08 10:40:43;;;;;;;;;;;;;;;-144.99;100.00;52517.41;5024706;28;20456;-69
2021/11/08 10:43:11;;;;;;;;;;;;;;;-144.99;100.00;52570.38;5022956;28;19993;-70
2021/11/08 10:45:46;;;;;;;;;;;;;;;-144.99;100.00;52537.78;5023128;28;19985;-71
2021/11/08 10:48:12;;;;;;;;;;;;;;;-144.99;100.00;52517.41;5017414;28;19978;-69
2021/11/08 10:50:39;;;;;;;;;;;;;;;-144.99;100.00;52562.25;5016895;28;20008;-70
2021/11/08 10:53:06;;;;;;;;;;;;;;;-144.99;100.00;52545.94;5025751;28;20047;-70
2021/11/08 10:55:32;;;;;;;;;;;;;;;-144.99;100.00;52529.63;5031459;28;19992;-69
2021/11/08 10:58:07;;;;;;;;;;;;;;;-144.99;100.00;52570.38;5022985;28;19985;-70
2021/11/08 11:00:45;;;;;;;;;;;;;;;-144.99;100.00;52570.38;4998905;28;19985;-70
2021/11/08 11:03:15;;;;;;;;;;;;;;;-144.99;100.00;52521.47;5008985;28;19998;-70
2021/11/08 11:05:42;;;;;;;;;;;;;;;-144.99;100.00;52582.63;5008803;28;20312;-70
2021/11/08 11:08:14;;;;;;;;;;;;;;;-144.99;100.00;52586.69;5010081;28;19974;-70
2021/11/08 11:10:42;;;;;;;;;;;;;;;-144.99;100.00;52541.84;5021797;28;20373;-70
2021/11/08 11:13:12;;;;;;;;;;;;;;;-144.99;100.00;52545.94;5028205;28;20119;-70
2021/11/08 11:15:43;;;;;;;;;;;;;;;-144.99;100.00;52525.56;5020298;28;20406;-70
2021/11/08 11:18:10;;;;;;;;;;;;;;;-144.99;100.00;52537.78;4996583;28;20256;-69
2021/11/08 11:20:39;;;;;;;;;;;;;;;-144.99;100.00;52554.09;5013531;28;19978;-71
2021/11/08 11:23:09;;;;;;;;;;;;;;;-144.99;100.00;52598.94;5007977;28;20363;-71
2021/11/08 11:25:37;;;;;;;;;;;;;;;-144.99;100.00;52550.00;5008705;28;20041;-71
2021/11/08 11:28:05;;;;;;;;;;;;;;;-144.99;100.00;52509.25;5008696;28;20312;-71
2021/11/08 11:30:33;;;;;;;;;;;;;;;-144.99;100.00;52576.50;5022891;28;20077;-71
2021/11/08 11:33:02;;;;;;;;;;;;;;;-144.99;100.00;52537.78;5022470;28;20470;-70
2021/11/08 11:35:30;;;;;;;;;;;;;;;-144.99;100.00;52578.53;5011161;28;20033;-69
2021/11/08 11:37:59;;;;;;;;;;;;;;;-144.99;100.00;52525.56;5016906;28;20309;-69
2021/11/08 11:40:26;;;;;;;;;;;;;;;-144.99;100.00;52550.00;5014689;28;19978;-69
2021/11/08 11:42:54;;;;;;;;;;;;;;;-144.99;100.00;52525.56;5025037;28;20024;-69
2021/11/08 11:45:21;;;;;;;;;;;;;;;-144.99;100.00;52529.63;5015365;28;19981;-69
2021/11/08 11:47:56;;;;;;;;;;;;;;;-144.99;100.00;52558.16;5014449;28;19993;-72
2021/11/08 11:50:24;;;;;;;;;;;;;;;-144.99;100.00;52582.63;5011917;28;20054;-71
2021/11/08 11:52:51;;;;;;;;;;;;;;;-144.99;100.00;52537.78;5013767;28;20304;-71
2021/11/08 11:55:18;;;;;;;;;;;;;;;-144.99;100.00;52537.78;5006884;28;20485;-71
2021/11/08 11:57:44;;;;;;;;;;;;;;;-144.99;100.00;52552.03;5006675;28;19992;-71
2021/11/08 12:00:11;;;;;;;;;;;;;;;-144.99;100.00;52525.56;5005474;28;19985;-71
2021/11/08 12:02:37;;;;;;;;;;;;;;;-144.99;100.00;52562.25;5019001;28;20008;-71
2021/11/08 12:05:05;;;;;;;;;;;;;;;-144.99;100.00;52554.09;5025903;28;19982;-72
2021/11/08 12:07:33;;;;;;;;;;;;;;;-144.99;100.00;52541.84;5013708;28;19982;-73
2021/11/08 12:10:00;;;;;;;;;;;;;;;-144.99;100.00;52529.63;5006390;28;20004;-71
2021/11/08 12:12:27;;;;;;;;;;;;;;;-144.99;100.00;52537.78;5005763;28;20478;-71
2021/11/08 12:14:57;;;;;;;;;;;;;;;-144.99;100.00;52529.63;5009822;28;20001;-71
2021/11/08 12:17:25;;;;;;;;;;;;;;;-144.99;100.00;52558.16;5006400;28;20458;-71
2021/11/08 12:19:52;;;;;;;;;;;;;;;-144.99;100.00;52570.38;5006774;28;20087;-71
2021/11/08 12:22:21;;;;;;;;;;;;;;;-144.99;100.00;52550.00;5020209;28;20299;-71
2021/11/08 12:24:57;;;;;;;;;;;;;;;-144.99;100.00;52554.09;5018004;28;19985;-71
2021/11/08 12:27:32;;;;;;;;;;;;;;;-144.99;100.00;52515.34;5005893;28;20015;-71
2021/11/08 12:30:00;;;;;;;;;;;;;;;-144.99;100.00;52501.09;5006356;28;20457;-76
2021/11/08 12:32:26;;;;;;;;;;;;;;;-144.99;100.00;52541.84;5012871;28;20231;-71
2021/11/08 12:34:55;;;;;;;;;;;;;;;-144.99;100.00;52513.31;5015682;28;20002;-71
2021/11/08 12:37:33;;;;;;;;;;;;;;;-144.99;100.00;52517.41;5007272;28;20452;-70
2021/11/08 12:40:02;;;;;;;;;;;;;;;-144.99;100.00;52499.06;5006605;28;19992;-70
2021/11/08 12:42:36;;;;;;;;;;;;;;;-144.99;100.00;52499.06;5013386;28;20023;-73
2021/11/08 12:45:08;;;;;;;;;;;;;;;-144.99;100.00;52558.16;5016420;28;20358;-72
2021/11/08 12:47:34;;;;;;;;;;;;;;;-144.99;100.00;52511.28;5013053;28;20180;-71
2021/11/08 12:50:01;;;;;;;;;;;;;;;-144.99;100.00;52529.63;5014666;28;19978;-71
2021/11/08 12:52:31;;;;;;;;;;;;;;;-144.99;100.00;52558.16;5012625;28;20044;-71
2021/11/08 12:55:04;;;;;;;;;;;;;;;-144.99;100.00;52560.19;5022207;28;20012;-70
2021/11/08 12:57:32;;;;;;;;;;;;;;;-144.99;100.00;52521.47;5019882;28;19977;-71
2021/11/08 12:59:59;;;;;;;;;;;;;;;-144.99;100.00;52545.94;5022995;28;19986;-70
2021/11/08 13:02:28;;;;;;;;;;;;;;;-144.99;100.00;52521.47;5018383;28;20040;-70
2021/11/08 13:04:55;;;;;;;;;;;;;;;-144.99;100.00;52545.94;5003366;28;20366;-71
2021/11/08 13:07:21;;;;;;;;;;;;;;;-144.99;100.00;52513.31;5005891;28;19996;-71
2021/11/08 13:09:49;;;;;;;;;;;;;;;-144.99;100.00;52537.78;5005749;28;19986;-71
2021/11/08 13:12:18;;;;;;;;;;;;;;;-144.99;100.00;52550.00;5005202;28;20005;-70
2021/11/08 13:14:45;;;;;;;;;;;;;;;-144.99;100.00;52566.31;5007584;28;20016;-70
2021/11/08 13:17:13;;;;;;;;;;;;;;;-144.99;100.00;52541.84;5009756;28;20614;-71
2021/11/08 13:19:44;;;;;;;;;;;;;;;-144.99;100.00;52505.16;5014961;28;20537;-70
2021/11/08 13:22:11;;;;;;;;;;;;;;;-144.99;100.00;52550.00;5016283;28;20081;-71
2021/11/08 13:24:38;;;;;;;;;;;;;;;-144.99;100.00;52539.81;5006644;28;20443;-70
2021/11/08 13:27:04;;;;;;;;;;;;;;;-144.99;100.00;52574.47;5009266;28;19982;-69
2021/11/08 13:29:32;;;;;;;;;;;;;;;-144.99;100.00;52517.41;5009753;28;19986;-69
2021/11/08 13:31:59;;;;;;;;;;;;;;;-144.99;100.00;52499.06;5009678;28;20447;-72
2021/11/08 13:34:25;;;;;;;;;;;;;;;-144.99;100.00;52511.28;5015750;28;20351;-70
2021/11/08 13:36:52;;;;;;;;;;;;;;;-144.99;100.00;52545.94;5014992;28;19989;-69
2021/11/08 13:39:22;;;;;;;;;;;;;;;-144.99;100.00;52554.09;5029301;28;19990;-71
2021/11/08 13:41:48;;;;;;;;;;;;;;;-144.99;100.00;52529.63;5028580;28;20225;-71